sensor_id;sensor_type;location;lat;lon;timestamp;temperature;humidity
8261;DHT22;64115;50.170;8.242;2023-02-02T00:02:00;4.10;99.90
8261;DHT22;64115;50.170;8.242;2023-02-02T00:04:28;4.00;99.90
8261;DHT22;64115;50.170;8.242;2023-02-02T00:06:56;4.10;99.90
8261;DHT22;64115;50.170;8.242;2023-02-02T00:09:25;4.10;99.90
8261;DHT22;64115;50.170;8.242;2023-02-02T00:11:55;4.10;99.90
8261;DHT22;64115;50.170;8.242;2023-02-02T00:14:22;4.10;99.90
8261;DHT22;64115;50.170;8.242;2023-02-02T00:16:50;4.10;99.90
8261;DHT22;64115;50.170;8.242;2023-02-02T00:19:20;4.10;99.90
8261;DHT22;64115;50.170;8.242;2023-02-02T00:21:47;4.00;99.90
8261;DHT22;64115;50.170;8.242;2023-02-02T00:24:15;4.00;99.90
8261;DHT22;64115;50.170;8.242;2023-02-02T00:26:45;4.00;99.90
8261;DHT22;64115;50.170;8.242;2023-02-02T00:29:17;4.10;99.90
8261;DHT22;64115;50.170;8.242;2023-02-02T00:31:45;4.10;99.90
8261;DHT22;64115;50.170;8.242;2023-02-02T00:34:13;4.10;99.90
8261;DHT22;64115;50.170;8.242;2023-02-02T00:36:40;4.10;99.90
8261;DHT22;64115;50.170;8.242;2023-02-02T00:39:08;4.10;99.90
8261;DHT22;64115;50.170;8.242;2023-02-02T00:41:36;4.10;99.90
8261;DHT22;64115;50.170;8.242;2023-02-02T00:44:03;4.10;99.90
8261;DHT22;64115;50.170;8.242;2023-02-02T00:46:49;4.10;99.90
8261;DHT22;64115;50.170;8.242;2023-02-02T00:49:16;4.00;99.90
8261;DHT22;64115;50.170;8.242;2023-02-02T00:51:43;4.00;99.90
8261;DHT22;64115;50.170;8.242;2023-02-02T00:54:10;4.10;99.90
8261;DHT22;64115;50.170;8.242;2023-02-02T00:56:38;4.10;99.90
8261;DHT22;64115;50.170;8.242;2023-02-02T00:59:05;4.00;99.90
8261;DHT22;64115;50.170;8.242;2023-02-02T01:01:33;4.00;99.90
8261;DHT22;64115;50.170;8.242;2023-02-02T01:04:01;4.00;99.90
8261;DHT22;64115;50.170;8.242;2023-02-02T01:06:28;4.10;99.90
8261;DHT22;64115;50.170;8.242;2023-02-02T01:08:55;4.10;99.90
8261;DHT22;64115;50.170;8.242;2023-02-02T01:11:22;4.10;99.90
8261;DHT22;64115;50.170;8.242;2023-02-02T01:13:50;4.10;99.90
8261;DHT22;64115;50.170;8.242;2023-02-02T01:16:17;4.10;99.90
8261;DHT22;64115;50.170;8.242;2023-02-02T01:18:46;4.10;99.90
8261;DHT22;64115;50.170;8.242;2023-02-02T01:21:15;4.10;99.90
8261;DHT22;64115;50.170;8.242;2023-02-02T01:23:42;4.10;99.90
8261;DHT22;64115;50.170;8.242;2023-02-02T01:26:10;4.10;99.90
8261;DHT22;64115;50.170;8.242;2023-02-02T01:28:38;4.10;99.90
8261;DHT22;64115;50.170;8.242;2023-02-02T01:31:06;4.20;99.90
8261;DHT22;64115;50.170;8.242;2023-02-02T01:33:34;4.20;99.90
8261;DHT22;64115;50.170;8.242;2023-02-02T01:36:03;4.20;99.90
8261;DHT22;64115;50.170;8.242;2023-02-02T01:38:32;4.20;99.90
8261;DHT22;64115;50.170;8.242;2023-02-02T01:41:00;4.10;99.90
8261;DHT22;64115;50.170;8.242;2023-02-02T01:46:18;4.10;99.90
8261;DHT22;64115;50.170;8.242;2023-02-02T01:48:48;4.10;99.90
8261;DHT22;64115;50.170;8.242;2023-02-02T01:51:18;4.20;99.90
8261;DHT22;64115;50.170;8.242;2023-02-02T01:53:49;4.20;99.90
8261;DHT22;64115;50.170;8.242;2023-02-02T01:56:20;4.10;99.90
8261;DHT22;64115;50.170;8.242;2023-02-02T01:58:50;4.20;99.90
8261;DHT22;64115;50.170;8.242;2023-02-02T02:01:17;4.20;99.90
8261;DHT22;64115;50.170;8.242;2023-02-02T02:03:44;4.20;99.90
8261;DHT22;64115;50.170;8.242;2023-02-02T02:06:14;4.20;99.90
8261;DHT22;64115;50.170;8.242;2023-02-02T02:08:46;4.20;99.90
8261;DHT22;64115;50.170;8.242;2023-02-02T02:11:18;4.20;99.90
8261;DHT22;64115;50.170;8.242;2023-02-02T02:13:45;4.20;99.90
8261;DHT22;64115;50.170;8.242;2023-02-02T02:16:41;4.20;99.90
8261;DHT22;64115;50.170;8.242;2023-02-02T02:19:24;4.30;99.90
8261;DHT22;64115;50.170;8.242;2023-02-02T02:21:58;4.20;99.90
8261;DHT22;64115;50.170;8.242;2023-02-02T02:25:30;4.20;99.90
8261;DHT22;64115;50.170;8.242;2023-02-02T02:28:42;4.20;99.90
8261;DHT22;64115;50.170;8.242;2023-02-02T02:34:09;4.20;99.90
8261;DHT22;64115;50.170;8.242;2023-02-02T02:36:47;4.20;99.90
8261;DHT22;64115;50.170;8.242;2023-02-02T02:39:19;4.20;99.90
8261;DHT22;64115;50.170;8.242;2023-02-02T02:41:55;4.20;99.90
8261;DHT22;64115;50.170;8.242;2023-02-02T02:44:23;4.20;99.90
8261;DHT22;64115;50.170;8.242;2023-02-02T02:46:52;4.20;99.90
8261;DHT22;64115;50.170;8.242;2023-02-02T02:49:21;4.20;99.90
8261;DHT22;64115;50.170;8.242;2023-02-02T02:51:49;4.20;99.90
8261;DHT22;64115;50.170;8.242;2023-02-02T02:54:18;4.20;99.90
8261;DHT22;64115;50.170;8.242;2023-02-02T02:56:56;4.20;99.90
8261;DHT22;64115;50.170;8.242;2023-02-02T02:59:35;4.20;99.90
8261;DHT22;64115;50.170;8.242;2023-02-02T03:02:10;4.30;99.90
8261;DHT22;64115;50.170;8.242;2023-02-02T03:04:50;4.20;99.90
8261;DHT22;64115;50.170;8.242;2023-02-02T03:07:26;4.20;99.90
8261;DHT22;64115;50.170;8.242;2023-02-02T03:09:56;4.20;99.90
8261;DHT22;64115;50.170;8.242;2023-02-02T03:12:24;4.30;99.90
8261;DHT22;64115;50.170;8.242;2023-02-02T03:14:51;4.30;99.90
8261;DHT22;64115;50.170;8.242;2023-02-02T03:17:18;4.20;99.90
8261;DHT22;64115;50.170;8.242;2023-02-02T03:19:46;4.20;99.90
8261;DHT22;64115;50.170;8.242;2023-02-02T03:22:13;4.20;99.90
8261;DHT22;64115;50.170;8.242;2023-02-02T03:24:40;4.20;99.90
8261;DHT22;64115;50.170;8.242;2023-02-02T03:27:07;4.20;99.90
8261;DHT22;64115;50.170;8.242;2023-02-02T03:29:34;4.20;99.90
8261;DHT22;64115;50.170;8.242;2023-02-02T03:32:02;4.20;99.90
8261;DHT22;64115;50.170;8.242;2023-02-02T03:34:29;4.20;99.90
8261;DHT22;64115;50.170;8.242;2023-02-02T03:36:57;4.20;99.90
8261;DHT22;64115;50.170;8.242;2023-02-02T03:39:24;4.20;99.90
8261;DHT22;64115;50.170;8.242;2023-02-02T03:41:51;4.30;99.90
8261;DHT22;64115;50.170;8.242;2023-02-02T03:44:18;4.20;99.90
8261;DHT22;64115;50.170;8.242;2023-02-02T03:46:45;4.20;99.90
8261;DHT22;64115;50.170;8.242;2023-02-02T03:49:12;4.20;99.90
8261;DHT22;64115;50.170;8.242;2023-02-02T03:51:39;4.20;99.90
8261;DHT22;64115;50.170;8.242;2023-02-02T03:54:09;4.20;99.90
8261;DHT22;64115;50.170;8.242;2023-02-02T03:56:35;4.20;99.90
8261;DHT22;64115;50.170;8.242;2023-02-02T03:59:03;4.30;99.90
8261;DHT22;64115;50.170;8.242;2023-02-02T04:01:30;4.20;99.90
8261;DHT22;64115;50.170;8.242;2023-02-02T04:03:57;4.20;99.90
8261;DHT22;64115;50.170;8.242;2023-02-02T04:06:25;4.20;99.90
8261;DHT22;64115;50.170;8.242;2023-02-02T04:08:52;4.20;99.90
8261;DHT22;64115;50.170;8.242;2023-02-02T04:11:21;4.30;99.90
8261;DHT22;64115;50.170;8.242;2023-02-02T04:13:48;4.20;99.90
8261;DHT22;64115;50.170;8.242;2023-02-02T04:16:15;4.20;99.90
8261;DHT22;64115;50.170;8.242;2023-02-02T04:18:42;4.20;99.90
8261;DHT22;64115;50.170;8.242;2023-02-02T04:21:09;4.20;99.90
8261;DHT22;64115;50.170;8.242;2023-02-02T04:23:36;4.20;99.90
8261;DHT22;64115;50.170;8.242;2023-02-02T04:26:03;4.30;99.90
8261;DHT22;64115;50.170;8.242;2023-02-02T04:28:32;4.30;99.90
8261;DHT22;64115;50.170;8.242;2023-02-02T04:30:59;4.30;99.90
8261;DHT22;64115;50.170;8.242;2023-02-02T04:33:27;4.30;99.90
8261;DHT22;64115;50.170;8.242;2023-02-02T04:35:54;4.30;99.90
8261;DHT22;64115;50.170;8.242;2023-02-02T04:38:21;4.30;99.90
8261;DHT22;64115;50.170;8.242;2023-02-02T04:40:48;4.30;99.90
8261;DHT22;64115;50.170;8.242;2023-02-02T04:43:16;4.30;99.90
8261;DHT22;64115;50.170;8.242;2023-02-02T04:45:44;4.30;99.90
8261;DHT22;64115;50.170;8.242;2023-02-02T04:48:11;4.30;99.90
8261;DHT22;64115;50.170;8.242;2023-02-02T04:50:38;4.30;99.90
8261;DHT22;64115;50.170;8.242;2023-02-02T04:53:05;4.30;99.90
8261;DHT22;64115;50.170;8.242;2023-02-02T04:55:35;4.30;99.90
8261;DHT22;64115;50.170;8.242;2023-02-02T04:58:03;4.30;99.90
8261;DHT22;64115;50.170;8.242;2023-02-02T05:00:30;4.30;99.90
8261;DHT22;64115;50.170;8.242;2023-02-02T05:02:59;4.30;99.90
8261;DHT22;64115;50.170;8.242;2023-02-02T05:05:26;4.30;99.90
8261;DHT22;64115;50.170;8.242;2023-02-02T05:07:53;4.30;99.90
8261;DHT22;64115;50.170;8.242;2023-02-02T05:10:20;4.30;99.90
8261;DHT22;64115;50.170;8.242;2023-02-02T05:12:47;4.30;99.90
8261;DHT22;64115;50.170;8.242;2023-02-02T05:15:14;4.30;99.90
8261;DHT22;64115;50.170;8.242;2023-02-02T05:17:41;4.30;99.90
8261;DHT22;64115;50.170;8.242;2023-02-02T05:20:10;4.30;99.90
8261;DHT22;64115;50.170;8.242;2023-02-02T05:22:37;4.20;99.90
8261;DHT22;64115;50.170;8.242;2023-02-02T05:25:05;4.30;99.90
8261;DHT22;64115;50.170;8.242;2023-02-02T05:27:32;4.20;99.90
8261;DHT22;64115;50.170;8.242;2023-02-02T05:29:59;4.20;99.90
8261;DHT22;64115;50.170;8.242;2023-02-02T05:32:27;4.20;99.90
8261;DHT22;64115;50.170;8.242;2023-02-02T05:34:54;4.20;99.90
8261;DHT22;64115;50.170;8.242;2023-02-02T05:37:22;4.20;99.90
8261;DHT22;64115;50.170;8.242;2023-02-02T05:39:49;4.20;99.90
8261;DHT22;64115;50.170;8.242;2023-02-02T05:42:18;4.20;99.90
8261;DHT22;64115;50.170;8.242;2023-02-02T05:44:45;4.20;99.90
8261;DHT22;64115;50.170;8.242;2023-02-02T05:47:12;4.20;99.90
8261;DHT22;64115;50.170;8.242;2023-02-02T05:49:39;4.20;99.90
8261;DHT22;64115;50.170;8.242;2023-02-02T05:52:06;4.20;99.90
8261;DHT22;64115;50.170;8.242;2023-02-02T05:54:35;4.20;99.90
8261;DHT22;64115;50.170;8.242;2023-02-02T05:57:02;4.20;99.90
8261;DHT22;64115;50.170;8.242;2023-02-02T05:59:29;4.20;99.90
8261;DHT22;64115;50.170;8.242;2023-02-02T06:01:56;4.30;99.90
8261;DHT22;64115;50.170;8.242;2023-02-02T06:04:23;4.20;99.90
8261;DHT22;64115;50.170;8.242;2023-02-02T06:06:50;4.20;99.90
8261;DHT22;64115;50.170;8.242;2023-02-02T06:09:17;4.20;99.90
8261;DHT22;64115;50.170;8.242;2023-02-02T06:11:45;4.20;99.90
8261;DHT22;64115;50.170;8.242;2023-02-02T06:14:12;4.20;99.90
8261;DHT22;64115;50.170;8.242;2023-02-02T06:16:39;4.20;99.90
8261;DHT22;64115;50.170;8.242;2023-02-02T06:19:06;4.20;99.90
8261;DHT22;64115;50.170;8.242;2023-02-02T06:21:33;4.20;99.90
8261;DHT22;64115;50.170;8.242;2023-02-02T06:24:00;4.20;99.90
8261;DHT22;64115;50.170;8.242;2023-02-02T06:26:27;4.20;99.90
8261;DHT22;64115;50.170;8.242;2023-02-02T06:28:55;4.20;99.90
8261;DHT22;64115;50.170;8.242;2023-02-02T06:31:23;4.20;99.90
8261;DHT22;64115;50.170;8.242;2023-02-02T06:33:53;4.20;99.90
8261;DHT22;64115;50.170;8.242;2023-02-02T06:36:20;4.10;99.90
8261;DHT22;64115;50.170;8.242;2023-02-02T06:38:48;4.20;99.90
8261;DHT22;64115;50.170;8.242;2023-02-02T06:41:15;4.20;99.90
8261;DHT22;64115;50.170;8.242;2023-02-02T06:43:42;4.10;99.90
8261;DHT22;64115;50.170;8.242;2023-02-02T06:46:11;4.20;99.90
8261;DHT22;64115;50.170;8.242;2023-02-02T06:48:38;4.20;99.90
8261;DHT22;64115;50.170;8.242;2023-02-02T06:51:06;4.10;99.90
8261;DHT22;64115;50.170;8.242;2023-02-02T06:53:33;4.20;99.90
8261;DHT22;64115;50.170;8.242;2023-02-02T06:56:02;4.20;99.90
8261;DHT22;64115;50.170;8.242;2023-02-02T06:58:31;4.20;99.90
8261;DHT22;64115;50.170;8.242;2023-02-02T07:01:00;4.20;99.90
8261;DHT22;64115;50.170;8.242;2023-02-02T07:03:31;4.20;99.90
8261;DHT22;64115;50.170;8.242;2023-02-02T07:05:58;4.30;99.90
8261;DHT22;64115;50.170;8.242;2023-02-02T07:08:25;4.20;99.90
8261;DHT22;64115;50.170;8.242;2023-02-02T07:10:52;4.20;99.90
8261;DHT22;64115;50.170;8.242;2023-02-02T07:13:19;4.20;99.90
8261;DHT22;64115;50.170;8.242;2023-02-02T07:15:46;4.20;99.90
8261;DHT22;64115;50.170;8.242;2023-02-02T07:18:13;4.20;99.90
8261;DHT22;64115;50.170;8.242;2023-02-02T07:20:41;4.30;99.90
8261;DHT22;64115;50.170;8.242;2023-02-02T07:23:08;4.30;99.90
8261;DHT22;64115;50.170;8.242;2023-02-02T07:25:35;4.30;99.90
8261;DHT22;64115;50.170;8.242;2023-02-02T07:28:03;4.30;99.90
8261;DHT22;64115;50.170;8.242;2023-02-02T07:30:30;4.30;99.90
8261;DHT22;64115;50.170;8.242;2023-02-02T07:32:58;4.30;99.90
8261;DHT22;64115;50.170;8.242;2023-02-02T07:35:25;4.30;99.90
8261;DHT22;64115;50.170;8.242;2023-02-02T07:37:54;4.40;99.90
8261;DHT22;64115;50.170;8.242;2023-02-02T07:40:21;4.40;99.90
8261;DHT22;64115;50.170;8.242;2023-02-02T07:42:48;4.40;99.90
8261;DHT22;64115;50.170;8.242;2023-02-02T07:45:15;4.40;99.90
8261;DHT22;64115;50.170;8.242;2023-02-02T07:47:42;4.40;99.90
8261;DHT22;64115;50.170;8.242;2023-02-02T07:50:09;4.40;99.90
8261;DHT22;64115;50.170;8.242;2023-02-02T07:52:36;4.40;99.90
8261;DHT22;64115;50.170;8.242;2023-02-02T07:55:06;4.40;99.90
8261;DHT22;64115;50.170;8.242;2023-02-02T07:57:33;4.40;99.90
8261;DHT22;64115;50.170;8.242;2023-02-02T08:00:01;4.40;99.90
8261;DHT22;64115;50.170;8.242;2023-02-02T08:02:28;4.40;99.90
8261;DHT22;64115;50.170;8.242;2023-02-02T08:04:55;4.40;99.90
8261;DHT22;64115;50.170;8.242;2023-02-02T08:07:21;4.40;99.90
8261;DHT22;64115;50.170;8.242;2023-02-02T08:09:50;4.50;99.90
8261;DHT22;64115;50.170;8.242;2023-02-02T08:12:18;4.50;99.90
8261;DHT22;64115;50.170;8.242;2023-02-02T08:14:47;4.50;99.90
8261;DHT22;64115;50.170;8.242;2023-02-02T08:17:14;4.50;99.90
8261;DHT22;64115;50.170;8.242;2023-02-02T08:19:41;4.50;99.90
8261;DHT22;64115;50.170;8.242;2023-02-02T08:22:08;4.50;99.90
8261;DHT22;64115;50.170;8.242;2023-02-02T08:24:35;4.60;99.90
8261;DHT22;64115;50.170;8.242;2023-02-02T08:27:05;4.60;99.90
8261;DHT22;64115;50.170;8.242;2023-02-02T08:29:35;4.60;99.90
8261;DHT22;64115;50.170;8.242;2023-02-02T08:32:02;4.70;99.90
8261;DHT22;64115;50.170;8.242;2023-02-02T08:34:30;4.70;99.90
8261;DHT22;64115;50.170;8.242;2023-02-02T08:36:59;4.70;99.90
8261;DHT22;64115;50.170;8.242;2023-02-02T08:39:26;4.80;99.90
8261;DHT22;64115;50.170;8.242;2023-02-02T08:41:54;4.80;99.90
8261;DHT22;64115;50.170;8.242;2023-02-02T08:44:21;4.80;99.90
8261;DHT22;64115;50.170;8.242;2023-02-02T08:46:50;4.90;99.90
8261;DHT22;64115;50.170;8.242;2023-02-02T08:49:17;4.90;99.90
8261;DHT22;64115;50.170;8.242;2023-02-02T08:51:44;4.90;99.90
8261;DHT22;64115;50.170;8.242;2023-02-02T08:54:11;4.90;99.90
8261;DHT22;64115;50.170;8.242;2023-02-02T08:56:38;4.90;99.90
8261;DHT22;64115;50.170;8.242;2023-02-02T08:59:05;4.90;99.90
8261;DHT22;64115;50.170;8.242;2023-02-02T09:01:33;4.90;99.90
8261;DHT22;64115;50.170;8.242;2023-02-02T09:04:03;5.00;99.90
8261;DHT22;64115;50.170;8.242;2023-02-02T09:06:32;5.10;99.90
8261;DHT22;64115;50.170;8.242;2023-02-02T09:09:01;5.10;99.90
8261;DHT22;64115;50.170;8.242;2023-02-02T09:11:28;5.20;99.90
8261;DHT22;64115;50.170;8.242;2023-02-02T09:13:57;5.20;99.90
8261;DHT22;64115;50.170;8.242;2023-02-02T09:16:26;5.30;99.90
8261;DHT22;64115;50.170;8.242;2023-02-02T09:18:53;5.30;99.90
8261;DHT22;64115;50.170;8.242;2023-02-02T09:21:23;5.40;99.90
8261;DHT22;64115;50.170;8.242;2023-02-02T09:23:51;5.50;99.90
8261;DHT22;64115;50.170;8.242;2023-02-02T09:26:20;5.40;99.90
8261;DHT22;64115;50.170;8.242;2023-02-02T09:28:51;5.40;99.90
8261;DHT22;64115;50.170;8.242;2023-02-02T09:31:19;5.50;99.90
8261;DHT22;64115;50.170;8.242;2023-02-02T09:33:46;5.50;99.90
8261;DHT22;64115;50.170;8.242;2023-02-02T09:36:15;5.50;99.90
8261;DHT22;64115;50.170;8.242;2023-02-02T09:38:44;5.50;99.90
8261;DHT22;64115;50.170;8.242;2023-02-02T09:41:39;5.60;99.90
8261;DHT22;64115;50.170;8.242;2023-02-02T09:44:18;5.60;99.90
8261;DHT22;64115;50.170;8.242;2023-02-02T09:46:55;5.60;99.90
8261;DHT22;64115;50.170;8.242;2023-02-02T09:49:30;5.60;99.90
8261;DHT22;64115;50.170;8.242;2023-02-02T09:52:03;5.50;99.90
8261;DHT22;64115;50.170;8.242;2023-02-02T09:54:38;5.50;99.90
8261;DHT22;64115;50.170;8.242;2023-02-02T09:57:24;5.50;99.90
8261;DHT22;64115;50.170;8.242;2023-02-02T09:59:59;5.50;99.90
8261;DHT22;64115;50.170;8.242;2023-02-02T10:02:38;5.50;99.90
8261;DHT22;64115;50.170;8.242;2023-02-02T10:10:31;5.60;99.90
8261;DHT22;64115;50.170;8.242;2023-02-02T10:40:10;6.00;99.90
8261;DHT22;64115;50.170;8.242;2023-02-02T10:42:49;6.10;99.90
8261;DHT22;64115;50.170;8.242;2023-02-02T10:45:32;6.10;99.90
8261;DHT22;64115;50.170;8.242;2023-02-02T10:48:01;6.10;99.90
8261;DHT22;64115;50.170;8.242;2023-02-02T10:50:28;6.00;99.90
8261;DHT22;64115;50.170;8.242;2023-02-02T10:53:09;5.90;99.90
8261;DHT22;64115;50.170;8.242;2023-02-02T10:55:42;5.90;99.90
8261;DHT22;64115;50.170;8.242;2023-02-02T10:58:20;5.80;99.90
8261;DHT22;64115;50.170;8.242;2023-02-02T11:00:52;5.80;99.90
8261;DHT22;64115;50.170;8.242;2023-02-02T11:03:22;5.70;99.90
8261;DHT22;64115;50.170;8.242;2023-02-02T11:05:50;5.70;99.90
8261;DHT22;64115;50.170;8.242;2023-02-02T11:08:44;5.70;99.90
8261;DHT22;64115;50.170;8.242;2023-02-02T11:11:17;5.70;99.90
8261;DHT22;64115;50.170;8.242;2023-02-02T11:13:49;5.70;99.90
8261;DHT22;64115;50.170;8.242;2023-02-02T11:16:21;5.60;99.90
8261;DHT22;64115;50.170;8.242;2023-02-02T11:18:48;5.40;99.90
8261;DHT22;64115;50.170;8.242;2023-02-02T11:21:23;5.40;99.90
8261;DHT22;64115;50.170;8.242;2023-02-02T11:23:53;5.30;99.90
8261;DHT22;64115;50.170;8.242;2023-02-02T11:26:23;5.30;99.90
8261;DHT22;64115;50.170;8.242;2023-02-02T11:28:53;5.30;99.90
8261;DHT22;64115;50.170;8.242;2023-02-02T11:31:34;5.30;99.90
8261;DHT22;64115;50.170;8.242;2023-02-02T11:34:13;5.40;99.90
8261;DHT22;64115;50.170;8.242;2023-02-02T11:37:01;5.40;99.90
8261;DHT22;64115;50.170;8.242;2023-02-02T11:39:29;5.50;99.90
8261;DHT22;64115;50.170;8.242;2023-02-02T11:42:04;5.50;99.90
8261;DHT22;64115;50.170;8.242;2023-02-02T11:44:32;5.50;99.90
8261;DHT22;64115;50.170;8.242;2023-02-02T11:47:02;5.50;99.90
8261;DHT22;64115;50.170;8.242;2023-02-02T11:49:37;5.60;99.90
8261;DHT22;64115;50.170;8.242;2023-02-02T11:52:15;5.60;99.90
8261;DHT22;64115;50.170;8.242;2023-02-02T11:54:46;5.60;99.90
8261;DHT22;64115;50.170;8.242;2023-02-02T11:57:19;5.70;99.90
8261;DHT22;64115;50.170;8.242;2023-02-02T11:59:48;5.70;99.90
8261;DHT22;64115;50.170;8.242;2023-02-02T12:02:28;5.60;99.90
8261;DHT22;64115;50.170;8.242;2023-02-02T12:05:12;5.60;99.90
8261;DHT22;64115;50.170;8.242;2023-02-02T12:07:41;5.60;99.90
8261;DHT22;64115;50.170;8.242;2023-02-02T12:10:15;5.60;99.90
8261;DHT22;64115;50.170;8.242;2023-02-02T12:12:52;5.60;99.90
8261;DHT22;64115;50.170;8.242;2023-02-02T12:15:29;5.70;99.90
8261;DHT22;64115;50.170;8.242;2023-02-02T12:23:35;5.70;99.90
8261;DHT22;64115;50.170;8.242;2023-02-02T12:28:53;5.70;99.90
8261;DHT22;64115;50.170;8.242;2023-02-02T12:34:06;5.60;99.90
8261;DHT22;64115;50.170;8.242;2023-02-02T12:36:42;5.70;99.90
8261;DHT22;64115;50.170;8.242;2023-02-02T12:39:26;5.70;99.90
8261;DHT22;64115;50.170;8.242;2023-02-02T12:42:19;5.80;99.90
8261;DHT22;64115;50.170;8.242;2023-02-02T12:45:01;5.80;99.90
8261;DHT22;64115;50.170;8.242;2023-02-02T12:47:35;5.80;99.90
8261;DHT22;64115;50.170;8.242;2023-02-02T12:50:15;5.90;99.90
8261;DHT22;64115;50.170;8.242;2023-02-02T12:52:58;5.90;99.90
8261;DHT22;64115;50.170;8.242;2023-02-02T12:55:39;5.90;99.90
8261;DHT22;64115;50.170;8.242;2023-02-02T12:58:14;5.90;99.90
8261;DHT22;64115;50.170;8.242;2023-02-02T13:01:08;5.90;99.90
8261;DHT22;64115;50.170;8.242;2023-02-02T13:03:51;5.90;99.90
8261;DHT22;64115;50.170;8.242;2023-02-02T13:09:36;6.00;99.90
8261;DHT22;64115;50.170;8.242;2023-02-02T13:12:08;5.90;99.90
8261;DHT22;64115;50.170;8.242;2023-02-02T13:14:39;5.90;99.90
8261;DHT22;64115;50.170;8.242;2023-02-02T13:17:12;5.90;99.90
8261;DHT22;64115;50.170;8.242;2023-02-02T13:19:46;5.90;99.90
8261;DHT22;64115;50.170;8.242;2023-02-02T13:22:17;5.90;99.90
8261;DHT22;64115;50.170;8.242;2023-02-02T13:24:48;5.80;99.90
8261;DHT22;64115;50.170;8.242;2023-02-02T13:27:18;5.80;99.90
8261;DHT22;64115;50.170;8.242;2023-02-02T13:29:51;5.90;99.90
8261;DHT22;64115;50.170;8.242;2023-02-02T13:32:25;5.80;99.90
8261;DHT22;64115;50.170;8.242;2023-02-02T13:35:00;5.80;99.90
8261;DHT22;64115;50.170;8.242;2023-02-02T13:37:33;5.90;99.90
8261;DHT22;64115;50.170;8.242;2023-02-02T13:40:11;5.90;99.90
8261;DHT22;64115;50.170;8.242;2023-02-02T13:42:46;5.90;99.90
8261;DHT22;64115;50.170;8.242;2023-02-02T13:45:29;5.90;99.90
8261;DHT22;64115;50.170;8.242;2023-02-02T13:48:07;5.90;99.90
8261;DHT22;64115;50.170;8.242;2023-02-02T13:50:44;5.90;99.90
8261;DHT22;64115;50.170;8.242;2023-02-02T13:53:35;5.90;99.90
8261;DHT22;64115;50.170;8.242;2023-02-02T13:56:25;5.90;99.90
8261;DHT22;64115;50.170;8.242;2023-02-02T13:59:08;5.90;99.90
8261;DHT22;64115;50.170;8.242;2023-02-02T14:01:39;5.90;99.90
8261;DHT22;64115;50.170;8.242;2023-02-02T14:04:18;5.90;99.90
8261;DHT22;64115;50.170;8.242;2023-02-02T14:06:54;5.90;99.90
8261;DHT22;64115;50.170;8.242;2023-02-02T14:09:25;5.90;99.90
8261;DHT22;64115;50.170;8.242;2023-02-02T14:11:56;5.90;99.90
8261;DHT22;64115;50.170;8.242;2023-02-02T14:14:24;5.80;99.90
8261;DHT22;64115;50.170;8.242;2023-02-02T14:16:58;5.80;99.90
8261;DHT22;64115;50.170;8.242;2023-02-02T14:19:56;5.90;99.90
8261;DHT22;64115;50.170;8.242;2023-02-02T14:22:51;5.90;99.90
8261;DHT22;64115;50.170;8.242;2023-02-02T14:25:48;5.90;99.90
8261;DHT22;64115;50.170;8.242;2023-02-02T14:28:43;5.90;99.90
8261;DHT22;64115;50.170;8.242;2023-02-02T14:31:29;5.90;99.90
8261;DHT22;64115;50.170;8.242;2023-02-02T14:34:28;6.00;99.90
8261;DHT22;64115;50.170;8.242;2023-02-02T14:37:33;6.00;99.90
8261;DHT22;64115;50.170;8.242;2023-02-02T14:40:28;5.90;99.90
8261;DHT22;64115;50.170;8.242;2023-02-02T14:43:09;5.90;99.90
8261;DHT22;64115;50.170;8.242;2023-02-02T14:49:22;5.80;99.90
8261;DHT22;64115;50.170;8.242;2023-02-02T14:51:56;5.80;99.90
8261;DHT22;64115;50.170;8.242;2023-02-02T14:54:30;5.80;99.90
8261;DHT22;64115;50.170;8.242;2023-02-02T14:57:02;5.80;99.90
8261;DHT22;64115;50.170;8.242;2023-02-02T14:59:33;5.80;99.90
8261;DHT22;64115;50.170;8.242;2023-02-02T15:02:15;5.80;99.90
8261;DHT22;64115;50.170;8.242;2023-02-02T15:04:43;5.80;99.90
8261;DHT22;64115;50.170;8.242;2023-02-02T15:07:35;5.80;99.90
8261;DHT22;64115;50.170;8.242;2023-02-02T15:10:08;5.70;99.90
8261;DHT22;64115;50.170;8.242;2023-02-02T15:12:38;5.70;99.90
8261;DHT22;64115;50.170;8.242;2023-02-02T15:15:15;5.70;99.90
8261;DHT22;64115;50.170;8.242;2023-02-02T15:17:50;5.70;99.90
8261;DHT22;64115;50.170;8.242;2023-02-02T15:20:25;5.70;99.90
8261;DHT22;64115;50.170;8.242;2023-02-02T15:22:57;5.60;99.90
8261;DHT22;64115;50.170;8.242;2023-02-02T15:25:31;5.60;99.90
8261;DHT22;64115;50.170;8.242;2023-02-02T15:28:06;5.60;99.90
8261;DHT22;64115;50.170;8.242;2023-02-02T15:30:34;5.70;99.90
8261;DHT22;64115;50.170;8.242;2023-02-02T15:33:11;5.60;99.90
8261;DHT22;64115;50.170;8.242;2023-02-02T15:35:41;5.60;99.90
8261;DHT22;64115;50.170;8.242;2023-02-02T15:38:13;5.60;99.90
8261;DHT22;64115;50.170;8.242;2023-02-02T15:40:43;5.60;99.90
8261;DHT22;64115;50.170;8.242;2023-02-02T15:43:11;5.60;99.90
8261;DHT22;64115;50.170;8.242;2023-02-02T15:45:42;5.70;99.90
8261;DHT22;64115;50.170;8.242;2023-02-02T15:48:28;5.60;99.90
8261;DHT22;64115;50.170;8.242;2023-02-02T15:50:58;5.70;99.90
8261;DHT22;64115;50.170;8.242;2023-02-02T15:53:27;5.70;99.90
8261;DHT22;64115;50.170;8.242;2023-02-02T15:55:56;5.70;99.90
8261;DHT22;64115;50.170;8.242;2023-02-02T15:58:27;5.70;99.90
8261;DHT22;64115;50.170;8.242;2023-02-02T16:00:56;5.70;99.90
8261;DHT22;64115;50.170;8.242;2023-02-02T16:03:25;5.70;99.90
8261;DHT22;64115;50.170;8.242;2023-02-02T16:05:57;5.70;99.90
8261;DHT22;64115;50.170;8.242;2023-02-02T16:08:26;5.70;99.90
8261;DHT22;64115;50.170;8.242;2023-02-02T16:11:04;5.70;99.90
8261;DHT22;64115;50.170;8.242;2023-02-02T16:13:32;5.60;99.90
8261;DHT22;64115;50.170;8.242;2023-02-02T16:16:02;5.60;99.90
8261;DHT22;64115;50.170;8.242;2023-02-02T16:18:31;5.60;99.90
8261;DHT22;64115;50.170;8.242;2023-02-02T16:21:03;5.60;99.90
8261;DHT22;64115;50.170;8.242;2023-02-02T16:23:33;5.60;99.90
8261;DHT22;64115;50.170;8.242;2023-02-02T16:26:05;5.60;99.90
8261;DHT22;64115;50.170;8.242;2023-02-02T16:28:33;5.60;99.90
8261;DHT22;64115;50.170;8.242;2023-02-02T16:31:01;5.60;99.90
8261;DHT22;64115;50.170;8.242;2023-02-02T16:33:34;5.70;99.90
8261;DHT22;64115;50.170;8.242;2023-02-02T16:36:02;5.70;99.90
8261;DHT22;64115;50.170;8.242;2023-02-02T16:38:31;5.60;99.90
8261;DHT22;64115;50.170;8.242;2023-02-02T16:41:05;5.60;99.90
8261;DHT22;64115;50.170;8.242;2023-02-02T16:43:34;5.60;99.90
8261;DHT22;64115;50.170;8.242;2023-02-02T16:46:04;5.60;99.90
8261;DHT22;64115;50.170;8.242;2023-02-02T16:48:34;5.60;99.90
8261;DHT22;64115;50.170;8.242;2023-02-02T16:51:04;5.60;99.90
8261;DHT22;64115;50.170;8.242;2023-02-02T16:53:34;5.60;99.90
8261;DHT22;64115;50.170;8.242;2023-02-02T16:56:06;5.60;99.90
8261;DHT22;64115;50.170;8.242;2023-02-02T16:58:38;5.60;99.90
8261;DHT22;64115;50.170;8.242;2023-02-02T17:01:08;5.60;99.90
8261;DHT22;64115;50.170;8.242;2023-02-02T17:03:39;5.60;99.90
8261;DHT22;64115;50.170;8.242;2023-02-02T17:06:08;5.60;99.90
8261;DHT22;64115;50.170;8.242;2023-02-02T17:08:37;5.60;99.90
8261;DHT22;64115;50.170;8.242;2023-02-02T17:11:19;5.60;99.90
8261;DHT22;64115;50.170;8.242;2023-02-02T17:13:48;5.60;99.90
8261;DHT22;64115;50.170;8.242;2023-02-02T17:16:18;5.60;99.90
8261;DHT22;64115;50.170;8.242;2023-02-02T17:18:45;5.60;99.90
8261;DHT22;64115;50.170;8.242;2023-02-02T17:21:14;5.60;99.90
8261;DHT22;64115;50.170;8.242;2023-02-02T17:23:44;5.60;99.90
8261;DHT22;64115;50.170;8.242;2023-02-02T17:26:12;5.60;99.90